Time;durP1;ratioP1;P1;durP2;ratioP2;P2;SDS_P1;SDS_P2;PMS_P1;PMS_P2;Temp;Humidity;BMP_temperature;BMP_pressure;BME280_temperature;BME280_humidity;BME280_pressure;Samples;Min_cycle;Max_cycle;Signal;HPM_P1;HPM_P2
2021/11/13 00:02:01;0.00;0.00;0.62;0.00;0.00;0.62;2.47;2.27;;;23.90;27.70;;;;;;2220823;62;20398;-60
2021/11/13 00:04:47;0.00;0.00;0.62;0.00;0.00;0.62;2.67;2.10;;;23.90;27.70;;;;;;2222329;62;20394;-62
2021/11/13 00:07:31;0.00;0.00;0.62;0.00;0.00;0.62;1.97;1.77;;;23.90;27.70;;;;;;2221597;62;20363;-60
2021/11/13 00:10:20;0.00;0.00;0.62;0.00;0.00;0.62;1.80;1.57;;;23.90;27.70;;;;;;2221775;62;20383;-60
2021/11/13 00:13:06;0.00;0.00;0.62;0.00;0.00;0.62;2.73;2.30;;;23.90;27.70;;;;;;2222187;62;20757;-59
2021/11/13 00:15:52;0.00;0.00;0.62;0.00;0.00;0.62;3.13;2.83;;;23.90;27.70;;;;;;2220767;62;20390;-59
2021/11/13 00:18:38;0.00;0.00;0.62;0.00;0.00;0.62;2.67;2.20;;;23.90;27.70;;;;;;2222353;62;20489;-61
2021/11/13 00:21:23;0.00;0.00;0.62;0.00;0.00;0.62;2.30;2.10;;;23.90;27.70;;;;;;2222504;62;20435;-61
2021/11/13 00:24:07;0.00;0.00;0.62;0.00;0.00;0.62;5.67;2.50;;;23.90;27.70;;;;;;2220776;62;20391;-62
2021/11/13 00:26:52;0.00;0.00;0.62;0.00;0.00;0.62;3.30;2.33;;;23.80;27.60;;;;;;2222223;62;20440;-61
2021/11/13 00:29:37;0.00;0.00;0.62;0.00;0.00;0.62;5.37;2.43;;;23.80;27.60;;;;;;2222282;62;20443;-62
2021/11/13 00:32:24;0.00;0.00;0.62;0.00;0.00;0.62;2.60;2.23;;;23.90;27.70;;;;;;2221157;62;20374;-62
2021/11/13 00:35:13;0.00;0.00;0.62;0.00;0.00;0.62;3.10;2.40;;;23.80;27.60;;;;;;2222134;62;20432;-63
2021/11/13 00:37:58;0.00;0.00;0.62;0.00;0.00;0.62;2.53;2.30;;;23.80;27.70;;;;;;2220287;62;20735;-63
2021/11/13 00:40:44;0.00;0.00;0.62;0.00;0.00;0.62;3.27;2.40;;;23.80;27.70;;;;;;2218773;62;20434;-62
2021/11/13 00:43:30;0.00;0.00;0.62;0.00;0.00;0.62;2.13;1.90;;;23.80;27.70;;;;;;2222081;62;20414;-62
2021/11/13 00:46:15;0.00;0.00;0.62;0.00;0.00;0.62;3.17;2.17;;;23.80;27.70;;;;;;2220869;62;20651;-61
2021/11/13 00:48:59;0.00;0.00;0.62;0.00;0.00;0.62;2.90;2.23;;;23.80;27.70;;;;;;2222168;62;20595;-62
2021/11/13 00:51:45;0.00;0.00;0.62;0.00;0.00;0.62;2.30;1.97;;;23.80;27.80;;;;;;2222284;62;20367;-62
2021/11/13 00:54:30;0.00;0.00;0.62;0.00;0.00;0.62;2.57;1.93;;;23.80;27.70;;;;;;2221416;62;20403;-62
2021/11/13 00:57:15;0.00;0.00;0.62;0.00;0.00;0.62;3.20;2.30;;;23.80;27.80;;;;;;2222122;62;20363;-62
2021/11/13 00:59:59;0.00;0.00;0.62;0.00;0.00;0.62;2.20;1.93;;;23.80;27.80;;;;;;2220757;62;20375;-62
2021/11/13 01:02:44;0.00;0.00;0.62;0.00;0.00;0.62;2.90;2.00;;;23.80;27.80;;;;;;2222305;62;20374;-62
2021/11/13 01:05:32;0.00;0.00;0.62;0.00;0.00;0.62;2.20;1.90;;;23.80;27.80;;;;;;2222043;62;20366;-62
2021/11/13 01:08:18;0.00;0.00;0.62;0.00;0.00;0.62;2.23;2.03;;;23.80;27.80;;;;;;2220786;62;20412;-62
2021/11/13 01:11:04;0.00;0.00;0.62;0.00;0.00;0.62;2.50;2.23;;;23.80;27.80;;;;;;2222226;62;20366;-62
2021/11/13 01:13:49;0.00;0.00;0.62;0.00;0.00;0.62;4.30;1.90;;;23.70;27.80;;;;;;2221516;62;20443;-62
2021/11/13 01:16:34;0.00;0.00;0.62;0.00;0.00;0.62;2.77;2.03;;;23.70;27.80;;;;;;2221476;62;20386;-62
2021/11/13 01:19:19;0.00;0.00;0.62;0.00;0.00;0.62;2.10;1.83;;;23.70;27.80;;;;;;2222200;62;20429;-62
2021/11/13 01:22:05;0.00;0.00;0.62;0.00;0.00;0.62;2.23;1.90;;;23.80;27.90;;;;;;2220493;62;20486;-62
2021/11/13 01:24:51;0.00;0.00;0.62;0.00;0.00;0.62;2.63;1.93;;;23.80;27.90;;;;;;2222147;62;20394;-62
2021/11/13 01:27:36;0.00;0.00;0.62;0.00;0.00;0.62;2.40;1.90;;;23.70;27.80;;;;;;2222165;62;20379;-62
2021/11/13 01:30:22;0.00;0.00;0.62;0.00;0.00;0.62;2.23;1.80;;;23.70;27.80;;;;;;2220728;62;20367;-62
2021/11/13 01:33:07;0.00;0.00;0.62;0.00;0.00;0.62;2.10;1.60;;;23.70;27.80;;;;;;2222050;62;20378;-61
2021/11/13 01:35:51;0.00;0.00;0.62;0.00;0.00;0.62;2.13;1.90;;;23.70;27.90;;;;;;2222630;62;20462;-60
2021/11/13 01:38:37;0.00;0.00;0.62;0.00;0.00;0.62;2.10;1.83;;;23.70;27.90;;;;;;2220934;62;20792;-62
2021/11/13 01:41:24;0.00;0.00;0.62;0.00;0.00;0.62;2.17;1.70;;;23.70;27.90;;;;;;2222081;62;20391;-64
2021/11/13 01:44:09;0.00;0.00;0.62;0.00;0.00;0.62;3.70;2.27;;;23.70;27.90;;;;;;2221583;62;20394;-63
2021/11/13 01:46:54;0.00;0.00;0.62;0.00;0.00;0.62;2.13;1.73;;;23.70;27.90;;;;;;2222842;62;20392;-61
2021/11/13 01:49:39;0.00;0.00;0.62;0.00;0.00;0.62;2.50;2.00;;;23.70;27.90;;;;;;2222900;62;20703;-63
2021/11/13 01:52:24;0.00;0.00;0.62;0.00;0.00;0.62;2.20;2.00;;;23.70;27.90;;;;;;2221356;62;20371;-62
2021/11/13 01:55:10;0.00;0.00;0.62;0.00;0.00;0.62;5.77;3.60;;;23.70;27.80;;;;;;2222760;62;20447;-63
2021/11/13 01:57:57;0.00;0.00;0.62;0.00;0.00;0.62;4.03;3.50;;;23.70;27.70;;;;;;2222863;62;20603;-62
2021/11/13 02:00:46;0.00;0.00;0.62;0.00;0.00;0.62;6.73;5.30;;;23.70;27.60;;;;;;2221631;62;20754;-63
2021/11/13 02:03:31;0.00;0.00;0.62;0.00;0.00;0.62;6.67;5.13;;;23.60;26.90;;;;;;2222781;62;20431;-60
2021/11/13 02:06:17;0.00;0.00;0.62;0.00;0.00;0.62;4.87;4.37;;;23.60;26.60;;;;;;2222085;62;20479;-62
2021/11/13 02:09:06;0.00;0.00;0.62;0.00;0.00;0.62;6.20;5.27;;;23.50;26.30;;;;;;2222827;62;20373;-63
2021/11/13 02:11:50;0.00;0.00;0.62;0.00;0.00;0.62;6.33;5.13;;;23.40;26.30;;;;;;2222898;62;20378;-62
2021/11/13 02:14:36;0.00;0.00;0.62;0.00;0.00;0.62;5.27;4.77;;;23.40;26.30;;;;;;2221299;62;20761;-62
2021/11/13 02:17:21;0.00;0.00;0.62;0.00;0.00;0.62;5.60;5.00;;;23.30;26.30;;;;;;2222766;62;20595;-62
2021/11/13 02:20:23;0.00;0.00;0.62;0.00;0.00;0.62;5.50;5.00;;;23.20;26.20;;;;;;2222923;62;20370;-62
2021/11/13 02:23:12;0.00;0.00;0.62;0.00;0.00;0.62;5.17;4.67;;;23.20;26.10;;;;;;2221528;62;20386;-62
2021/11/13 02:25:57;0.00;0.00;0.62;0.00;0.00;0.62;5.00;4.50;;;23.10;26.20;;;;;;2222789;62;20755;-62
2021/11/13 02:28:45;0.00;0.00;0.62;0.00;0.00;0.62;4.20;3.80;;;23.10;26.30;;;;;;2221497;62;20634;-62
2021/11/13 02:31:34;0.00;0.00;0.62;0.00;0.00;0.62;5.47;4.80;;;23.10;26.40;;;;;;2222769;62;20371;-63
2021/11/13 02:34:19;0.00;0.00;0.62;0.00;0.00;0.62;5.20;4.70;;;23.10;26.40;;;;;;2222570;62;20406;-62
2021/11/13 02:37:06;0.00;0.00;0.62;0.00;0.00;0.62;5.50;5.00;;;23.00;26.40;;;;;;2221349;62;20386;-62
2021/11/13 02:39:50;0.00;0.00;0.62;0.00;0.00;0.62;5.53;4.70;;;23.00;26.40;;;;;;2222803;62;20375;-62
2021/11/13 02:42:39;0.00;0.00;0.62;0.00;0.00;0.62;5.13;4.63;;;23.00;26.40;;;;;;2222341;62;20363;-62
2021/11/13 02:45:24;0.00;0.00;0.62;0.00;0.00;0.62;5.23;4.73;;;23.00;26.40;;;;;;2221668;62;20374;-62
2021/11/13 02:48:10;0.00;0.00;0.62;0.00;0.00;0.62;5.33;4.83;;;22.90;26.20;;;;;;2222259;62;20367;-62
2021/11/13 02:50:55;0.00;0.00;0.62;0.00;0.00;0.62;5.40;4.90;;;22.90;26.20;;;;;;2221488;62;20386;-62
2021/11/13 02:53:43;0.00;0.00;0.62;0.00;0.00;0.62;6.10;5.60;;;22.90;26.00;;;;;;2222525;62;20505;-62
2021/11/13 02:56:29;0.00;0.00;0.62;0.00;0.00;0.62;6.10;5.03;;;22.80;25.70;;;;;;2222777;62;20423;-62
2021/11/13 02:59:13;0.00;0.00;0.62;0.00;0.00;0.62;5.30;4.80;;;22.70;25.60;;;;;;2221122;62;20408;-62
2021/11/13 03:01:58;0.00;0.00;0.62;0.00;0.00;0.62;6.93;6.30;;;22.70;25.70;;;;;;2222722;62;20456;-62
2021/11/13 03:04:42;0.00;0.00;0.62;0.00;0.00;0.62;6.20;5.60;;;22.60;25.50;;;;;;2222706;62;20395;-62
2021/11/13 03:07:27;0.00;0.00;0.62;0.00;0.00;0.62;6.90;6.20;;;22.50;25.40;;;;;;2221267;62;20375;-62
2021/11/13 03:10:14;0.00;0.00;0.62;0.00;0.00;0.62;6.40;5.80;;;22.50;25.40;;;;;;2222925;62;20374;-62
2021/11/13 03:12:59;0.00;0.00;0.62;0.00;0.00;0.62;6.23;5.63;;;22.40;25.30;;;;;;2221600;62;20489;-62
2021/11/13 03:15:44;0.00;0.00;0.62;0.00;0.00;0.62;5.93;5.43;;;22.30;25.20;;;;;;2222670;62;20416;-62
2021/11/13 03:18:30;0.00;0.00;0.62;0.00;0.00;0.62;5.83;5.10;;;22.30;25.20;;;;;;2222682;62;20367;-62
2021/11/13 03:21:15;0.00;0.00;0.62;0.00;0.00;0.62;7.57;6.73;;;22.20;25.80;;;;;;2220976;62;20394;-62
2021/11/13 03:24:02;0.00;0.00;0.62;0.00;0.00;0.62;6.00;5.40;;;22.10;25.20;;;;;;2222263;62;20402;-62
2021/11/13 03:26:49;0.00;0.00;0.62;0.00;0.00;0.62;6.70;5.70;;;22.10;25.30;;;;;;2222458;62;20374;-62
2021/11/13 03:29:35;0.00;0.00;0.62;0.00;0.00;0.62;6.50;5.90;;;22.00;25.80;;;;;;2220884;62;20387;-62
2021/11/13 03:32:19;0.00;0.00;0.62;0.00;0.00;0.62;6.23;5.63;;;21.90;25.30;;;;;;2222604;62;20792;-61
2021/11/13 03:35:06;0.00;0.00;0.62;0.00;0.00;0.62;6.20;5.60;;;21.90;25.40;;;;;;2221674;62;20839;-62
2021/11/13 03:37:51;0.00;0.00;0.62;0.00;0.00;0.62;6.37;5.77;;;21.80;25.40;;;;;;2222670;62;20370;-62
2021/11/13 03:40:40;0.00;0.00;0.62;0.00;0.00;0.62;5.60;5.10;;;21.80;25.50;;;;;;2222520;62;20607;-62
2021/11/13 03:43:26;0.00;0.00;0.62;0.00;0.00;0.62;7.13;6.33;;;21.80;25.50;;;;;;2220881;62;20467;-62
2021/11/13 03:46:11;0.00;0.00;0.62;0.00;0.00;0.62;6.30;5.70;;;21.70;25.60;;;;;;2222475;62;20379;-62
2021/11/13 03:48:56;0.00;0.00;0.62;0.00;0.00;0.62;5.47;4.90;;;21.70;25.70;;;;;;2222371;62;20410;-62
2021/11/13 03:51:41;0.00;0.00;0.62;0.00;0.00;0.62;5.80;5.27;;;21.70;25.70;;;;;;2221249;62;20412;-62
2021/11/13 03:54:25;0.00;0.00;0.62;0.00;0.00;0.62;6.00;5.37;;;21.60;25.70;;;;;;2222373;62;20414;-62
2021/11/13 03:57:11;0.00;0.00;0.62;0.00;0.00;0.62;5.17;4.67;;;21.60;25.80;;;;;;2221704;62;20481;-62
2021/11/13 03:59:57;0.00;0.00;0.62;0.00;0.00;0.62;4.73;4.17;;;21.60;25.90;;;;;;2222251;62;20374;-62
2021/11/13 04:02:23;0.00;0.00;0.62;0.00;0.00;0.62;5.13;4.63;;;21.60;25.90;;;;;;2222310;62;20723;-62
2021/11/13 04:05:08;0.00;0.00;0.62;0.00;0.00;0.62;5.97;5.30;;;21.70;25.90;;;;;;2220918;62;20674;-62
2021/11/13 04:07:52;0.00;0.00;0.62;0.00;0.00;0.62;5.90;5.30;;;21.70;26.00;;;;;;2222608;62;20722;-62
2021/11/13 04:10:37;0.00;0.00;0.62;0.00;0.00;0.62;5.30;4.80;;;21.70;25.90;;;;;;2222349;62;20715;-62
2021/11/13 04:13:23;0.00;0.00;0.62;0.00;0.00;0.62;5.83;5.30;;;21.60;25.80;;;;;;2220880;62;20413;-62
2021/11/13 04:16:09;0.00;0.00;0.62;0.00;0.00;0.62;6.33;5.73;;;21.60;25.80;;;;;;2222466;62;20367;-62
2021/11/13 04:18:54;0.00;0.00;0.62;0.00;0.00;0.62;5.73;4.87;;;21.60;25.70;;;;;;2222514;62;20588;-62
2021/11/13 04:21:39;0.00;0.00;0.62;0.00;0.00;0.62;6.20;5.60;;;21.60;25.70;;;;;;2221697;62;20490;-62
2021/11/13 04:24:24;0.00;0.00;0.62;0.00;0.00;0.62;9.37;6.57;;;21.50;25.70;;;;;;2222226;62;20451;-62
2021/11/13 04:27:09;0.00;0.00;0.62;0.00;0.00;0.62;6.60;5.90;;;21.50;25.60;;;;;;2221101;62;20654;-62
2021/11/13 04:29:53;0.00;0.00;0.62;0.00;0.00;0.62;7.60;5.70;;;21.50;25.70;;;;;;2222369;62;20377;-62
2021/11/13 04:32:40;0.00;0.00;0.62;0.00;0.00;0.62;6.60;5.77;;;21.40;25.70;;;;;;2222358;62;20712;-62
2021/11/13 04:38:16;0.00;0.00;0.62;0.00;0.00;0.62;6.80;5.90;;;21.40;25.60;;;;;;2222251;62;20397;-62
2021/11/13 04:41:05;0.00;0.00;0.62;0.00;0.00;0.62;14.53;6.43;;;21.30;25.50;;;;;;2222449;62;20436;-62
2021/11/13 04:43:50;0.00;0.00;0.62;0.00;0.00;0.62;6.90;6.20;;;21.30;25.50;;;;;;2221480;62;20747;-61
2021/11/13 04:46:35;0.00;0.00;0.62;0.00;0.00;0.62;6.33;5.73;;;21.20;25.50;;;;;;2222227;62;20412;-62
2021/11/13 04:49:21;0.00;0.00;0.62;0.00;0.00;0.62;7.27;6.57;;;21.20;25.50;;;;;;2221203;62;20597;-61
2021/11/13 04:52:07;0.00;0.00;0.62;0.00;0.00;0.62;6.20;5.20;;;21.20;26.10;;;;;;2222295;62;20372;-61
2021/11/13 04:54:51;0.00;0.00;0.62;0.00;0.00;0.62;6.57;5.87;;;21.10;25.60;;;;;;2222308;62;20504;-62
2021/11/13 04:57:36;0.00;0.00;0.62;0.00;0.00;0.62;5.83;5.23;;;21.10;25.70;;;;;;2220770;62;20628;-62
2021/11/13 05:00:28;0.00;0.00;0.62;0.00;0.00;0.62;5.50;5.00;;;21.10;25.80;;;;;;2221905;62;20362;-62
2021/11/13 05:03:13;0.00;0.00;0.62;0.00;0.00;0.62;5.60;4.90;;;21.10;25.80;;;;;;2221848;62;20378;-62
2021/11/13 05:05:59;0.00;0.00;0.62;0.00;0.00;0.62;6.27;5.67;;;21.10;25.80;;;;;;2221152;62;20371;-62
2021/11/13 05:08:43;0.00;0.00;0.62;0.00;0.00;0.62;5.60;4.97;;;21.10;25.80;;;;;;2222422;62;20589;-62
2021/11/13 05:11:28;0.00;0.00;0.62;0.00;0.00;0.62;5.47;4.97;;;21.10;25.70;;;;;;2221113;62;20444;-61
2021/11/13 05:14:12;0.00;0.00;0.62;0.00;0.00;0.62;6.10;5.37;;;21.10;25.80;;;;;;2222054;62;20395;-61
2021/11/13 05:16:57;0.00;0.00;0.62;0.00;0.00;0.62;6.53;5.80;;;21.10;25.80;;;;;;2222350;62;20739;-62
2021/11/13 05:19:41;0.00;0.00;0.62;0.00;0.00;0.62;6.03;5.43;;;21.00;25.70;;;;;;2220691;62;20412;-62
2021/11/13 05:22:27;0.00;0.00;0.62;0.00;0.00;0.62;5.13;4.63;;;21.00;25.70;;;;;;2222238;62;20398;-62
2021/11/13 05:25:20;0.00;0.00;0.62;0.00;0.00;0.62;6.37;4.83;;;21.00;25.70;;;;;;2222193;62;20774;-62
2021/11/13 05:28:05;0.00;0.00;0.62;0.00;0.00;0.62;5.33;4.80;;;21.00;25.70;;;;;;2220842;62;20395;-62
2021/11/13 05:30:50;0.00;0.00;0.62;0.00;0.00;0.62;5.93;5.33;;;21.00;25.80;;;;;;2222418;62;20371;-62
2021/11/13 05:33:34;0.00;0.00;0.62;0.00;0.00;0.62;5.80;5.20;;;21.00;25.80;;;;;;2221206;62;20436;-63
2021/11/13 05:36:18;0.00;0.00;0.62;0.00;0.00;0.62;5.80;5.20;;;21.00;25.80;;;;;;2221770;62;20374;-62
2021/11/13 05:39:04;0.00;0.00;0.62;0.00;0.00;0.62;6.23;5.63;;;21.00;25.80;;;;;;2222354;62;20370;-62
2021/11/13 05:41:49;0.00;0.00;0.62;0.00;0.00;0.62;8.47;4.87;;;20.90;25.80;;;;;;2220672;62;20391;-62
2021/11/13 05:44:42;0.00;0.00;0.62;0.00;0.00;0.62;5.33;4.83;;;20.90;25.80;;;;;;2222230;62;20754;-62
2021/11/13 05:47:27;0.00;0.00;0.62;0.00;0.00;0.62;5.07;4.67;;;20.90;25.80;;;;;;2222107;62;20812;-62
2021/11/13 05:50:16;0.00;0.00;0.62;0.00;0.00;0.62;6.10;5.13;;;20.90;25.80;;;;;;2220835;62;20375;-62
2021/11/13 05:53:01;0.00;0.00;0.62;0.00;0.00;0.62;6.07;5.47;;;20.90;25.80;;;;;;2222157;62;20416;-62
2021/11/13 05:55:48;0.00;0.00;0.62;0.00;0.00;0.62;5.00;4.50;;;20.90;25.70;;;;;;2221391;62;20539;-63
2021/11/13 05:58:32;0.00;0.00;0.62;0.00;0.00;0.62;5.43;4.93;;;20.90;25.80;;;;;;2222226;62;20371;-61
2021/11/13 06:01:17;0.00;0.00;0.62;0.00;0.00;0.62;6.50;5.80;;;20.90;25.80;;;;;;2222110;62;20432;-61
2021/11/13 06:04:01;0.00;0.00;0.62;0.00;0.00;0.62;7.60;5.63;;;20.90;25.70;;;;;;2220590;62;20406;-61
2021/11/13 06:06:46;0.00;0.00;0.62;0.00;0.00;0.62;6.17;5.57;;;20.80;25.50;;;;;;2222231;62;20515;-63
2021/11/13 06:09:30;0.00;0.00;0.62;0.00;0.00;0.62;5.93;5.33;;;20.80;25.50;;;;;;2222086;62;20447;-63
2021/11/13 06:12:16;0.00;0.00;0.62;0.00;0.00;0.62;5.10;4.67;;;20.80;25.60;;;;;;2220738;62;20413;-63
2021/11/13 06:15:01;0.00;0.00;0.62;0.00;0.00;0.62;6.27;5.63;;;20.70;25.70;;;;;;2222101;62;20394;-62
2021/11/13 06:17:46;0.00;0.00;0.62;0.00;0.00;0.62;7.97;5.70;;;20.70;25.70;;;;;;2221441;62;20363;-64
2021/11/13 06:20:30;0.00;0.00;0.62;0.00;0.00;0.62;7.90;5.60;;;20.70;25.80;;;;;;2222017;62;20417;-62
2021/11/13 06:23:16;0.00;0.00;0.62;0.00;0.00;0.62;7.30;6.60;;;20.70;25.80;;;;;;2222593;62;20792;-62
2021/11/13 06:26:02;0.00;0.00;0.62;0.00;0.00;0.62;8.30;5.20;;;20.60;25.70;;;;;;2221183;62;20726;-63
2021/11/13 06:28:47;0.00;0.00;0.62;0.00;0.00;0.62;7.60;5.70;;;20.60;25.80;;;;;;2222909;62;20715;-60
2021/11/13 06:31:32;0.00;0.00;0.62;0.00;0.00;0.62;6.93;6.30;;;20.60;25.90;;;;;;2222311;62;20465;-65
2021/11/13 06:33:58;0.00;0.00;0.62;0.00;0.00;0.62;9.03;5.10;;;20.50;25.90;;;;;;2221029;62;20380;-66
2021/11/13 06:36:43;0.00;0.00;0.62;0.00;0.00;0.62;5.73;5.10;;;20.50;26.00;;;;;;2222770;62;20585;-67
2021/11/13 06:39:27;0.00;0.00;0.62;0.00;0.00;0.62;8.53;5.93;;;20.50;26.10;;;;;;2222488;62;20399;-66
2021/11/13 06:42:12;0.00;0.00;0.62;0.00;0.00;0.62;6.70;5.53;;;20.50;26.10;;;;;;2221969;62;20467;-64
2021/11/13 06:44:58;0.00;0.00;0.62;0.00;0.00;0.62;7.27;6.50;;;20.50;26.10;;;;;;2222656;62;20410;-63
2021/11/13 06:47:42;0.00;0.00;0.62;0.00;0.00;0.62;7.73;5.90;;;20.50;26.10;;;;;;2221249;62;20375;-63
2021/11/13 06:50:27;0.00;0.00;0.62;0.00;0.00;0.62;7.67;6.40;;;20.40;26.00;;;;;;2222802;62;20370;-61
2021/11/13 06:53:12;0.00;0.00;0.62;0.00;0.00;0.62;9.27;7.10;;;20.40;26.00;;;;;;2222714;62;20371;-63
2021/11/13 06:55:57;0.00;0.00;0.62;0.00;0.00;0.62;7.07;6.37;;;20.40;26.10;;;;;;2221230;62;20424;-60
2021/11/13 06:58:41;0.00;0.00;0.62;0.00;0.00;0.62;7.40;6.60;;;20.30;26.20;;;;;;2222263;62;20400;-60
2021/11/13 07:01:33;0.00;0.00;0.62;0.00;0.00;0.62;7.67;6.77;;;20.30;26.10;;;;;;2222661;62;20432;-63
2021/11/13 07:04:17;0.00;0.00;0.62;0.00;0.00;0.62;6.43;5.70;;;20.20;26.20;;;;;;2221311;62;20402;-61
2021/11/13 07:07:03;0.00;0.00;0.62;0.00;0.00;0.62;6.23;5.60;;;20.20;26.20;;;;;;2222500;62;20657;-60
2021/11/13 07:09:47;0.00;0.00;0.62;0.00;0.00;0.62;7.70;6.90;;;20.20;26.30;;;;;;2221867;62;20402;-62
2021/11/13 07:12:32;0.00;0.00;0.62;0.00;0.00;0.62;7.30;6.50;;;20.10;26.20;;;;;;2222615;62;21010;-62
2021/11/13 07:15:18;0.00;0.00;0.62;0.00;0.00;0.62;8.57;6.37;;;20.10;26.20;;;;;;2222578;62;20412;-63
2021/11/13 07:18:04;0.00;0.00;0.62;0.00;0.00;0.62;6.80;6.10;;;20.10;26.30;;;;;;2221178;62;20740;-63
2021/11/13 07:20:53;0.00;0.00;0.62;0.00;0.00;0.62;8.47;7.27;;;20.00;26.30;;;;;;2222458;62;20375;-67
2021/11/13 07:23:38;0.00;0.00;0.62;0.00;0.00;0.62;6.93;6.23;;;20.00;26.50;;;;;;2222280;62;20402;-68
2021/11/13 07:26:22;0.00;0.00;0.62;0.00;0.00;0.62;7.37;6.60;;;20.00;26.60;;;;;;2221065;62;20569;-64
2021/11/13 07:29:09;0.00;0.00;0.62;0.00;0.00;0.62;7.80;6.30;;;20.00;26.60;;;;;;2222126;62;20363;-65
2021/11/13 07:31:54;0.00;0.00;0.62;0.00;0.00;0.62;7.37;6.33;;;20.00;26.60;;;;;;2221276;62;20600;-63
2021/11/13 07:34:40;0.00;0.00;0.62;0.00;0.00;0.62;7.10;6.27;;;20.00;26.60;;;;;;2222389;62;20641;-64
2021/11/13 07:37:25;0.00;0.00;0.62;0.00;0.00;0.62;6.23;5.63;;;20.00;26.60;;;;;;2221795;62;20370;-62
2021/11/13 07:40:11;0.00;0.00;0.62;0.00;0.00;0.62;7.40;6.40;;;20.00;26.60;;;;;;2221423;62;20810;-64
2021/11/13 07:42:57;0.00;0.00;0.62;0.00;0.00;0.62;7.10;6.23;;;20.00;26.60;;;;;;2222440;62;20390;-64
2021/11/13 07:45:42;0.00;0.00;0.62;0.00;0.00;0.62;6.73;6.00;;;20.00;26.60;;;;;;2222579;62;20420;-61
2021/11/13 07:48:26;0.00;0.00;0.62;0.00;0.00;0.62;6.20;5.60;;;20.00;26.60;;;;;;2221548;62;20439;-61
2021/11/13 07:51:12;0.00;0.00;0.62;0.00;0.00;0.62;6.40;5.67;;;20.00;26.60;;;;;;2221672;62;20367;-61
2021/11/13 07:53:57;0.00;0.00;0.62;0.00;0.00;0.62;6.10;5.20;;;20.00;26.60;;;;;;2220990;62;20427;-61
2021/11/13 07:56:41;0.00;0.00;0.62;0.00;0.00;0.62;7.33;6.10;;;20.00;26.60;;;;;;2222463;62;20736;-61
2021/11/13 07:59:26;0.00;0.00;0.62;0.00;0.00;0.62;7.30;6.60;;;20.00;26.60;;;;;;2221984;62;20699;-61
2021/11/13 08:02:11;0.00;0.00;0.62;0.00;0.00;0.62;5.70;5.10;;;20.00;26.60;;;;;;2221305;62;20416;-61
2021/11/13 08:04:55;0.00;0.00;0.62;0.00;0.00;0.62;7.30;5.50;;;20.00;26.60;;;;;;2222386;62;20766;-61
2021/11/13 08:07:42;0.00;0.00;0.62;0.00;0.00;0.62;7.57;5.73;;;20.00;26.60;;;;;;2218955;62;20363;-62
2021/11/13 08:10:27;0.00;0.00;0.62;0.00;0.00;0.62;5.90;5.37;;;20.00;26.60;;;;;;2221334;62;20370;-61
2021/11/13 08:13:16;0.00;0.00;0.62;0.00;0.00;0.62;7.87;6.63;;;20.00;26.60;;;;;;2222091;62;20394;-61
2021/11/13 08:16:02;0.00;0.00;0.62;0.00;0.00;0.62;9.13;7.20;;;20.00;26.60;;;;;;2221787;62;20367;-62
2021/11/13 08:18:47;0.00;0.00;0.62;0.00;0.00;0.62;8.43;7.20;;;20.00;26.60;;;;;;2221740;62;20416;-61
2021/11/13 08:21:32;0.00;0.00;0.62;0.00;0.00;0.62;7.70;6.90;;;20.00;26.60;;;;;;2444173;54;20787;-61
2021/11/13 08:24:20;0.00;0.00;0.62;0.00;0.00;0.62;6.10;5.50;;;20.00;26.60;;;;;;2217201;62;20399;-65
2021/11/13 08:27:07;0.00;0.00;0.62;0.00;0.00;0.62;6.33;5.37;;;19.90;26.50;;;;;;2218262;62;20368;-62
2021/11/13 08:29:52;0.00;0.00;0.62;0.00;0.00;0.62;6.50;5.70;;;19.90;27.00;;;;;;2217573;62;20383;-64
2021/11/13 08:32:39;0.00;0.00;0.62;0.00;0.00;0.62;5.30;4.80;;;20.00;26.60;;;;;;2217107;62;20368;-63
2021/11/13 08:35:24;0.00;0.00;0.62;0.00;0.00;0.62;5.47;4.47;;;20.00;26.70;;;;;;2218275;62;20387;-63
2021/11/13 08:38:12;0.00;0.00;0.62;0.00;0.00;0.62;5.40;4.67;;;20.00;26.80;;;;;;2217952;62;20728;-62
2021/11/13 08:40:59;0.00;0.00;0.62;0.00;0.00;0.62;6.40;4.87;;;20.00;26.80;;;;;;2217874;62;20421;-64
2021/11/13 08:43:44;0.00;0.00;0.62;0.00;0.00;0.62;4.33;3.93;;;20.00;26.70;;;;;;2217739;62;20391;-63
2021/11/13 08:46:30;0.00;0.00;0.62;0.00;0.00;0.62;4.67;4.00;;;20.10;26.80;;;;;;2217083;62;20448;-62
2021/11/13 08:49:15;0.00;0.00;0.62;0.00;0.00;0.62;4.70;4.13;;;20.10;26.80;;;;;;2218288;62;20617;-62
2021/11/13 08:51:59;0.00;0.00;0.62;0.00;0.00;0.62;5.03;3.53;;;20.10;26.70;;;;;;2217950;62;20601;-64
2021/11/13 08:54:46;0.00;0.00;0.62;0.00;0.00;0.62;3.80;3.50;;;20.20;27.30;;;;;;2217118;62;20387;-64
2021/11/13 08:57:33;0.00;0.00;0.62;0.00;0.00;0.62;4.83;3.77;;;20.20;26.70;;;;;;2218466;62;20410;-65
2021/11/13 09:00:22;0.00;0.00;0.62;0.00;0.00;0.62;3.83;3.27;;;20.20;26.70;;;;;;2218294;62;20421;-63
2021/11/13 09:03:12;0.00;0.00;0.62;0.00;0.00;0.62;4.10;3.70;;;20.30;26.80;;;;;;2217445;62;20399;-62
2021/11/13 09:05:59;0.00;0.00;0.62;0.00;0.00;0.62;3.73;3.10;;;20.30;27.40;;;;;;2217985;62;20391;-64
2021/11/13 09:08:47;0.00;0.00;0.62;0.00;0.00;0.62;3.10;2.80;;;20.30;26.80;;;;;;2217325;62;20410;-64
2021/11/13 09:11:37;0.00;0.00;0.62;0.00;0.00;0.62;3.80;3.27;;;20.40;26.90;;;;;;2218230;62;20359;-66
2021/11/13 09:14:23;0.00;0.00;0.62;0.00;0.00;0.62;3.20;2.90;;;20.40;26.90;;;;;;2217977;62;20383;-62
2021/11/13 09:17:07;0.00;0.00;0.62;0.00;0.00;0.62;3.73;3.33;;;20.40;26.90;;;;;;2217146;62;20390;-61
2021/11/13 09:19:52;0.00;0.00;0.62;0.00;0.00;0.62;4.20;3.60;;;20.50;26.90;;;;;;2218384;62;20372;-66
2021/11/13 09:22:37;0.00;0.00;0.62;0.00;0.00;0.62;4.00;3.43;;;20.50;26.90;;;;;;2217571;62;20390;-61
2021/11/13 09:25:23;0.00;0.00;0.62;0.00;0.00;0.62;4.23;3.60;;;20.50;26.90;;;;;;2217925;62;20387;-62
2021/11/13 09:28:07;0.00;0.00;0.62;0.00;0.00;0.62;3.57;3.20;;;20.50;26.90;;;;;;2218155;62;20413;-61
2021/11/13 09:30:54;0.00;0.00;0.62;0.00;0.00;0.62;4.73;4.07;;;20.60;27.00;;;;;;2217087;62;20372;-64
2021/11/13 09:33:39;0.00;0.00;0.62;0.00;0.00;0.62;4.10;3.70;;;20.60;27.00;;;;;;2218166;62;20707;-65
2021/11/13 09:36:23;0.00;0.00;0.62;0.00;0.00;0.62;4.30;3.40;;;20.70;27.10;;;;;;2217955;62;20413;-61
2021/11/13 09:39:10;0.00;0.00;0.62;0.00;0.00;0.62;4.93;4.07;;;20.70;27.10;;;;;;2216994;62;20491;-63
2021/11/13 09:41:57;0.00;0.00;0.62;0.00;0.00;0.62;3.80;3.40;;;20.70;27.10;;;;;;2218323;62;20603;-63
2021/11/13 09:44:42;0.00;0.00;0.62;0.00;0.00;0.62;3.70;3.33;;;20.70;27.10;;;;;;2217813;62;20604;-64
2021/11/13 09:47:29;0.00;0.00;0.62;0.00;0.00;0.62;4.03;3.30;;;20.70;27.10;;;;;;2217826;62;20605;-64
2021/11/13 09:50:14;0.00;0.00;0.62;0.00;0.00;0.62;4.23;3.83;;;20.80;27.20;;;;;;2218032;62;20448;-63
2021/11/13 09:52:59;0.00;0.00;0.62;0.00;0.00;0.62;3.80;3.40;;;20.80;27.20;;;;;;2216934;62;20965;-63
2021/11/13 09:55:44;0.00;0.00;0.62;0.00;0.00;0.62;3.80;3.40;;;20.80;27.70;;;;;;2218401;62;20777;-61
2021/11/13 09:58:30;0.00;0.00;0.62;0.00;0.00;0.62;3.50;3.00;;;20.80;27.20;;;;;;2218447;62;20375;-63
2021/11/13 10:01:17;0.00;0.00;0.62;0.00;0.00;0.62;4.05;3.50;;;20.90;27.20;;;;;;2217762;62;20764;-64
2021/11/13 10:04:03;0.00;0.00;0.62;0.00;0.00;0.62;4.93;3.10;;;20.90;27.30;;;;;;2218939;62;20260;-66
2021/11/13 10:06:48;0.00;0.00;0.62;0.00;0.00;0.62;4.00;3.00;;;20.90;27.20;;;;;;2218661;62;20368;-63
2021/11/13 10:09:32;0.00;0.00;0.62;0.00;0.00;0.62;6.20;3.87;;;21.00;27.30;;;;;;2218784;62;20427;-65
2021/11/13 10:12:17;0.00;0.00;0.62;0.00;0.00;0.62;4.30;3.80;;;21.00;27.20;;;;;;2218383;62;20359;-64
2021/11/13 10:15:24;0.00;0.00;0.62;0.00;0.00;0.62;5.97;3.83;;;21.00;27.20;;;;;;2217788;62;20429;-63
2021/11/13 10:18:13;0.00;0.00;0.62;0.00;0.00;0.62;4.83;3.67;;;21.10;27.30;;;;;;2218883;62;20578;-63
2021/11/13 10:21:10;0.00;0.00;0.62;0.00;0.00;0.62;3.80;3.33;;;21.10;27.40;;;;;;2218522;62;20368;-61
2021/11/13 10:23:58;0.00;0.00;0.62;0.00;0.00;0.62;4.87;3.97;;;21.10;27.40;;;;;;2217800;62;20387;-62
2021/11/13 10:26:46;0.00;0.00;0.62;0.00;0.00;0.62;3.53;3.20;;;21.10;27.40;;;;;;2218469;62;20395;-62
2021/11/13 10:29:37;0.00;0.00;0.62;0.00;0.00;0.62;4.07;3.30;;;21.10;27.30;;;;;;2218376;62;20363;-62
2021/11/13 10:32:21;0.00;0.00;0.62;0.00;0.00;0.62;5.63;3.00;;;21.10;27.30;;;;;;2218946;62;20351;-63
2021/11/13 10:35:06;0.00;0.00;0.62;0.00;0.00;0.62;3.90;3.13;;;21.20;27.30;;;;;;2218470;62;20405;-63
2021/11/13 10:37:52;0.00;0.00;0.62;0.00;0.00;0.62;4.17;3.07;;;21.20;27.20;;;;;;2217909;62;20368;-63
2021/11/13 10:40:37;0.00;0.00;0.62;0.00;0.00;0.62;4.17;3.67;;;21.20;27.20;;;;;;2218696;62;20368;-60
2021/11/13 10:43:32;0.00;0.00;0.62;0.00;0.00;0.62;6.10;3.30;;;21.20;27.20;;;;;;2218512;62;20468;-63
2021/11/13 10:46:20;0.00;0.00;0.62;0.00;0.00;0.62;5.73;4.30;;;21.20;27.20;;;;;;2217998;62;20396;-64
2021/11/13 10:49:06;0.00;0.00;0.62;0.00;0.00;0.62;5.40;4.40;;;21.30;27.30;;;;;;2218429;62;20422;-63
2021/11/13 10:51:54;0.00;0.00;0.62;0.00;0.00;0.62;4.60;4.10;;;21.30;27.30;;;;;;2217595;62;20409;-62
2021/11/13 10:54:45;0.00;0.00;0.62;0.00;0.00;0.62;4.57;3.63;;;21.30;27.20;;;;;;2218686;62;20653;-61
2021/11/13 10:57:32;0.00;0.00;0.62;0.00;0.00;0.62;5.60;3.63;;;21.30;27.20;;;;;;2218505;62;20368;-65